Jose Eduardo — EA-8620 — position and weather

sailwx.info

Track history (hours):
 
Tides and Currents Weather Stations Pressure Air Temp Water Temp Dewpoint Dewpoint Depression Visibility Wind Speed Wind Dir Waves Ship Positions

Jose Eduardo

Last reported at 2017-Sep-21 10:21 UTC. Time now 2017-Sep-22 04:21 UTC.
Position N 43°39' W 005°33'.

Length 15 m; draft 2 m.

MMSI: 224170740.

Date/timePositionNaut miles runAvg speedWind from/ knotsBaromVisibWave heightAir tempDewpointWater temp
2017-Sep-21 10:21N 43°39' W 005°33'2 2.7
2017-Sep-21 09:36N 43°37' W 005°33'0 0.9
2017-Sep-21 09:07N 43°37' W 005°32'0 1.0
2017-Sep-21 08:55N 43°37' W 005°32'1 1.6
2017-Sep-21 08:27N 43°36' W 005°31'1 1.5
2017-Sep-21 08:00N 43°37' W 005°30'1 1.2
2017-Sep-21 07:25N 43°38' W 005°30'0 0.2
2017-Sep-21 06:49N 43°37' W 005°30'0 0.2
2017-Sep-21 06:25N 43°37' W 005°30'0 0.1
2017-Sep-21 05:55N 43°37' W 005°30'0 0.1
2017-Sep-21 05:25N 43°37' W 005°30'0 0.2
2017-Sep-21 04:43N 43°37' W 005°31'0 1.1
2017-Sep-21 04:30N 43°37' W 005°31'2 4.5
2017-Sep-21 03:59N 43°37' W 005°34'2 2.7
2017-Sep-21 03:06N 43°40' W 005°33'1 6.8
2017-Sep-21 03:00N 43°40' W 005°34'2 2.7
2017-Sep-21 02:22N 43°41' W 005°36'3 7.4
2017-Sep-21 02:00N 43°39' W 005°33'4 7.4
2017-Sep-21 01:28N 43°37' W 005°28'3 5.4
2017-Sep-21 00:59N 43°38' W 005°25'1 0.1
2017-Sep-20 19:54N 43°39' W 005°25'8 0.3
2017-Sep-19 16:55N 43°35' W 005°16'34 0.9
2017-Sep-18 01:04N 43°46' W 006°00'4 7.3
2017-Sep-18 00:34N 43°42' W 005°59'1 7.4
2017-Sep-18 00:29N 43°42' W 005°59'  
2017-Sep-15 13:48N 43°46' W 005°51'1 1.0
2017-Sep-15 12:30N 43°47' W 005°50'1 0.4
2017-Sep-15 08:55N 43°48' W 005°50'1 0.2
2017-Sep-15 04:12N 43°49' W 005°51'2 4.2
2017-Sep-15 03:47N 43°48' W 005°50'2 1.2
2017-Sep-15 02:16N 43°48' W 005°52'2 4.8
2017-Sep-15 01:52N 43°47' W 005°51'6 0.7
2017-Sep-14 17:13N 43°41' W 005°51'2 6.6
2017-Sep-14 16:59N 43°40' W 005°49'3 7.2
2017-Sep-14 16:30N 43°39' W 005°45'4 7.2
2017-Sep-14 15:58N 43°37' W 005°40'4 5.9
2017-Sep-14 15:21N 43°37' W 005°35'0 1.1
2017-Sep-14 15:00N 43°37' W 005°35'1 1.7
2017-Sep-14 14:25N 43°37' W 005°36'2 4.6
2017-Sep-14 13:52N 43°38' W 005°33'1 1.4
2017-Sep-14 13:27N 43°38' W 005°32'1 1.0
2017-Sep-14 12:55N 43°38' W 005°31'1 1.4
2017-Sep-14 12:29N 43°37' W 005°31'1 1.2
2017-Sep-14 11:57N 43°37' W 005°30'2 3.9
2017-Sep-14 11:29N 43°38' W 005°32'2 2.2
2017-Sep-14 10:37N 43°38' W 005°35'0 0.4
2017-Sep-14 10:23N 43°38' W 005°35'1 2.7
2017-Sep-14 09:58N 43°37' W 005°36'1 1.2
2017-Sep-14 09:29N 43°37' W 005°35'1 1.5
2017-Sep-14 09:00N 43°37' W 005°34'1 1.6
2017-Sep-14 08:28N 43°38' W 005°33'1 2.8
2017-Sep-14 08:01N 43°39' W 005°32'1 2.5
2017-Sep-14 07:30N 43°38' W 005°31'1 2.7
2017-Sep-14 07:00N 43°37' W 005°30'1 0.6
2017-Sep-14 05:53N 43°36' W 005°29'0 0.8
2017-Sep-14 05:28N 43°37' W 005°30'0 1.0
2017-Sep-14 05:01N 43°37' W 005°30'1 1.1
2017-Sep-14 04:30N 43°38' W 005°30'1 1.3
2017-Sep-14 04:00N 43°37' W 005°30'3 5.4
2017-Sep-14 03:29N 43°38' W 005°34'0 0.2
2017-Sep-14 02:27N 43°38' W 005°33'2 3.8
2017-Sep-14 01:56N 43°37' W 005°36'2 4.7
2017-Sep-14 01:30N 43°36' W 005°38'3 6.9
2017-Sep-14 01:00N 43°34' W 005°41'0 0.0
2017-Sep-13 16:52N 43°33' W 005°42'0 0.0
2017-Sep-13 16:22N 43°33' W 005°42'0 0.0
2017-Sep-13 14:58N 43°33' W 005°42'3 6.6
2017-Sep-13 14:30N 43°35' W 005°38'2 4.9
2017-Sep-13 14:00N 43°37' W 005°36'1 1.8
2017-Sep-13 13:30N 43°37' W 005°34'2 3.0
2017-Sep-13 12:56N 43°38' W 005°33'1 1.5
2017-Sep-13 12:28N 43°38' W 005°32'1 1.4
2017-Sep-13 11:57N 43°38' W 005°32'1 1.3
2017-Sep-13 11:13N 43°37' W 005°30'8 1.6
2017-Sep-13 06:12N 43°36' W 005°19'1 0.6
2017-Sep-13 04:12N 43°37' W 005°21'0 0.5
2017-Sep-13 04:00N 43°37' W 005°21'2 4.0
2017-Sep-13 03:29N 43°36' W 005°23'3 6.5
2017-Sep-13 03:00N 43°37' W 005°27'4 7.2
2017-Sep-13 02:30N 43°38' W 005°32'2 4.1
2017-Sep-13 02:00N 43°37' W 005°34'0 0.5
2017-Sep-13 01:30N 43°36' W 005°35'3 6.7
2017-Sep-13 01:00N 43°35' W 005°38'3 0.5
2017-Sep-12 19:55N 43°33' W 005°42'0 0.0
2017-Sep-12 19:30N 43°33' W 005°42'0 0.0
2017-Sep-12 18:29N 43°33' W 005°42'0 0.0
2017-Sep-12 17:59N 43°33' W 005°42'0 0.0
2017-Sep-12 17:03N 43°33' W 005°42'0 3.1
2017-Sep-12 16:57N 43°33' W 005°41'3 5.6
2017-Sep-12 16:29N 43°35' W 005°39'5 2.9
2017-Sep-12 14:52N 43°39' W 005°35'0 0.8
2017-Sep-12 14:20N 43°39' W 005°34'0 1.1
2017-Sep-12 14:00N 43°39' W 005°34'0 0.7
2017-Sep-12 13:31N 43°39' W 005°33'0 0.8
2017-Sep-12 13:00N 43°39' W 005°33'1 1.3
2017-Sep-12 12:30N 43°39' W 005°32'0 0.9
2017-Sep-12 12:00N 43°39' W 005°31'1 1.6
2017-Sep-12 11:24N 43°39' W 005°32'0 0.8
2017-Sep-12 10:53N 43°40' W 005°32'1 3.1
2017-Sep-12 10:30N 43°38' W 005°33'1 1.3
2017-Sep-12 09:59N 43°38' W 005°32'1 1.1
2017-Sep-12 09:27N 43°38' W 005°31'1 1.4
2017-Sep-12 08:57N 43°38' W 005°30'3 4.2
2017-Sep-12 08:20N 43°37' W 005°27'1 3.2
2017-Sep-12 07:57N 43°37' W 005°25'0 1.0
2017-Sep-12 07:29N 43°37' W 005°26'1 1.1
2017-Sep-12 06:58N 43°37' W 005°27'0 1.0
2017-Sep-12 06:30N 43°37' W 005°27'1 1.0
2017-Sep-12 05:55N 43°37' W 005°28'0 1.0
2017-Sep-12 05:28N 43°37' W 005°29'0 1.0
2017-Sep-12 05:00N 43°37' W 005°29'0 1.0
2017-Sep-12 04:30N 43°38' W 005°30'3 5.3
2017-Sep-12 04:01N 43°39' W 005°33'1 1.3
2017-Sep-12 03:28N 43°39' W 005°34'1 2.4
2017-Sep-12 03:01N 43°39' W 005°32'1 2.0
2017-Sep-12 02:30N 43°39' W 005°34'4 7.1
2017-Sep-12 02:01N 43°37' W 005°37'4 7.5
2017-Sep-12 01:30N 43°34' W 005°41'  
Track history (hours):
 
Tides and Currents Weather Stations Pressure Air Temp Water Temp Dewpoint Dewpoint Depression Visibility Wind Speed Wind Dir Waves Ship Positions

Jose Eduardo

Last reported at 2017-Sep-21 10:21 UTC. Time now 2017-Sep-22 04:21 UTC.
Position N 43°39' W 005°33'.

Length 15 m; draft 2 m.

MMSI: 224170740.

Date/timePositionNaut miles runAvg speedWind from/ knotsBaromVisibWave heightAir tempDewpointWater temp
2017-Sep-21 10:21N 43°39' W 005°33'2 2.7
2017-Sep-21 09:36N 43°37' W 005°33'0 0.9
2017-Sep-21 09:07N 43°37' W 005°32'0 1.0
2017-Sep-21 08:55N 43°37' W 005°32'1 1.6
2017-Sep-21 08:27N 43°36' W 005°31'1 1.5
2017-Sep-21 08:00N 43°37' W 005°30'1 1.2
2017-Sep-21 07:25N 43°38' W 005°30'0 0.2
2017-Sep-21 06:49N 43°37' W 005°30'0 0.2
2017-Sep-21 06:25N 43°37' W 005°30'0 0.1
2017-Sep-21 05:55N 43°37' W 005°30'0 0.1
2017-Sep-21 05:25N 43°37' W 005°30'0 0.2
2017-Sep-21 04:43N 43°37' W 005°31'0 1.1
2017-Sep-21 04:30N 43°37' W 005°31'2 4.5
2017-Sep-21 03:59N 43°37' W 005°34'2 2.7
2017-Sep-21 03:06N 43°40' W 005°33'1 6.8
2017-Sep-21 03:00N 43°40' W 005°34'2 2.7
2017-Sep-21 02:22N 43°41' W 005°36'3 7.4
2017-Sep-21 02:00N 43°39' W 005°33'4 7.4
2017-Sep-21 01:28N 43°37' W 005°28'3 5.4
2017-Sep-21 00:59N 43°38' W 005°25'1 0.1
2017-Sep-20 19:54N 43°39' W 005°25'8 0.3
2017-Sep-19 16:55N 43°35' W 005°16'34 0.9
2017-Sep-18 01:04N 43°46' W 006°00'4 7.3
2017-Sep-18 00:34N 43°42' W 005°59'1 7.4
2017-Sep-18 00:29N 43°42' W 005°59'  
2017-Sep-15 13:48N 43°46' W 005°51'1 1.0
2017-Sep-15 12:30N 43°47' W 005°50'1 0.4
2017-Sep-15 08:55N 43°48' W 005°50'1 0.2
2017-Sep-15 04:12N 43°49' W 005°51'2 4.2
2017-Sep-15 03:47N 43°48' W 005°50'2 1.2
2017-Sep-15 02:16N 43°48' W 005°52'2 4.8
2017-Sep-15 01:52N 43°47' W 005°51'6 0.7
2017-Sep-14 17:13N 43°41' W 005°51'2 6.6
2017-Sep-14 16:59N 43°40' W 005°49'3 7.2
2017-Sep-14 16:30N 43°39' W 005°45'4 7.2
2017-Sep-14 15:58N 43°37' W 005°40'4 5.9
2017-Sep-14 15:21N 43°37' W 005°35'0 1.1
2017-Sep-14 15:00N 43°37' W 005°35'1 1.7
2017-Sep-14 14:25N 43°37' W 005°36'2 4.6
2017-Sep-14 13:52N 43°38' W 005°33'1 1.4
2017-Sep-14 13:27N 43°38' W 005°32'1 1.0
2017-Sep-14 12:55N 43°38' W 005°31'1 1.4
2017-Sep-14 12:29N 43°37' W 005°31'1 1.2
2017-Sep-14 11:57N 43°37' W 005°30'2 3.9
2017-Sep-14 11:29N 43°38' W 005°32'2 2.2
2017-Sep-14 10:37N 43°38' W 005°35'0 0.4
2017-Sep-14 10:23N 43°38' W 005°35'1 2.7
2017-Sep-14 09:58N 43°37' W 005°36'1 1.2
2017-Sep-14 09:29N 43°37' W 005°35'1 1.5
2017-Sep-14 09:00N 43°37' W 005°34'1 1.6
2017-Sep-14 08:28N 43°38' W 005°33'1 2.8
2017-Sep-14 08:01N 43°39' W 005°32'1 2.5
2017-Sep-14 07:30N 43°38' W 005°31'1 2.7
2017-Sep-14 07:00N 43°37' W 005°30'1 0.6
2017-Sep-14 05:53N 43°36' W 005°29'0 0.8
2017-Sep-14 05:28N 43°37' W 005°30'0 1.0
2017-Sep-14 05:01N 43°37' W 005°30'1 1.1
2017-Sep-14 04:30N 43°38' W 005°30'1 1.3
2017-Sep-14 04:00N 43°37' W 005°30'3 5.4
2017-Sep-14 03:29N 43°38' W 005°34'0 0.2
2017-Sep-14 02:27N 43°38' W 005°33'2 3.8
2017-Sep-14 01:56N 43°37' W 005°36'2 4.7
2017-Sep-14 01:30N 43°36' W 005°38'3 6.9
2017-Sep-14 01:00N 43°34' W 005°41'0 0.0
2017-Sep-13 16:52N 43°33' W 005°42'0 0.0
2017-Sep-13 16:22N 43°33' W 005°42'0 0.0
2017-Sep-13 14:58N 43°33' W 005°42'3 6.6
2017-Sep-13 14:30N 43°35' W 005°38'2 4.9
2017-Sep-13 14:00N 43°37' W 005°36'1 1.8
2017-Sep-13 13:30N 43°37' W 005°34'2 3.0
2017-Sep-13 12:56N 43°38' W 005°33'1 1.5
2017-Sep-13 12:28N 43°38' W 005°32'1 1.4
2017-Sep-13 11:57N 43°38' W 005°32'1 1.3
2017-Sep-13 11:13N 43°37' W 005°30'8 1.6
2017-Sep-13 06:12N 43°36' W 005°19'1 0.6
2017-Sep-13 04:12N 43°37' W 005°21'0 0.5
2017-Sep-13 04:00N 43°37' W 005°21'2 4.0
2017-Sep-13 03:29N 43°36' W 005°23'3 6.5
2017-Sep-13 03:00N 43°37' W 005°27'4 7.2
2017-Sep-13 02:30N 43°38' W 005°32'2 4.1
2017-Sep-13 02:00N 43°37' W 005°34'0 0.5
2017-Sep-13 01:30N 43°36' W 005°35'3 6.7
2017-Sep-13 01:00N 43°35' W 005°38'3 0.5
2017-Sep-12 19:55N 43°33' W 005°42'0 0.0
2017-Sep-12 19:30N 43°33' W 005°42'0 0.0
2017-Sep-12 18:29N 43°33' W 005°42'0 0.0
2017-Sep-12 17:59N 43°33' W 005°42'0 0.0
2017-Sep-12 17:03N 43°33' W 005°42'0 3.1
2017-Sep-12 16:57N 43°33' W 005°41'3 5.6
2017-Sep-12 16:29N 43°35' W 005°39'5 2.9
2017-Sep-12 14:52N 43°39' W 005°35'0 0.8
2017-Sep-12 14:20N 43°39' W 005°34'0 1.1
2017-Sep-12 14:00N 43°39' W 005°34'0 0.7
2017-Sep-12 13:31N 43°39' W 005°33'0 0.8
2017-Sep-12 13:00N 43°39' W 005°33'1 1.3
2017-Sep-12 12:30N 43°39' W 005°32'0 0.9
2017-Sep-12 12:00N 43°39' W 005°31'1 1.6
2017-Sep-12 11:24N 43°39' W 005°32'0 0.8
2017-Sep-12 10:53N 43°40' W 005°32'1 3.1
2017-Sep-12 10:30N 43°38' W 005°33'1 1.3
2017-Sep-12 09:59N 43°38' W 005°32'1 1.1
2017-Sep-12 09:27N 43°38' W 005°31'1 1.4
2017-Sep-12 08:57N 43°38' W 005°30'3 4.2
2017-Sep-12 08:20N 43°37' W 005°27'1 3.2
2017-Sep-12 07:57N 43°37' W 005°25'0 1.0
2017-Sep-12 07:29N 43°37' W 005°26'1 1.1
2017-Sep-12 06:58N 43°37' W 005°27'0 1.0
2017-Sep-12 06:30N 43°37' W 005°27'1 1.0
2017-Sep-12 05:55N 43°37' W 005°28'0 1.0
2017-Sep-12 05:28N 43°37' W 005°29'0 1.0
2017-Sep-12 05:00N 43°37' W 005°29'0 1.0
2017-Sep-12 04:30N 43°38' W 005°30'3 5.3
2017-Sep-12 04:01N 43°39' W 005°33'1 1.3
2017-Sep-12 03:28N 43°39' W 005°34'1 2.4
2017-Sep-12 03:01N 43°39' W 005°32'1 2.0
2017-Sep-12 02:30N 43°39' W 005°34'4 7.1
2017-Sep-12 02:01N 43°37' W 005°37'4 7.5
2017-Sep-12 01:30N 43°34' W 005°41'  

Dump ship's entire track history